sensor_id;sensor_type;location;lat;lon;timestamp;pressure;altitude;pressure_sealevel;temperature;humidity
59274;BME280;45044;41.572;24.730;2023-04-06T00:00:40;90830.81;;;1.53;100.00
59274;BME280;45044;41.572;24.730;2023-04-06T00:03:07;90827.28;;;1.58;100.00
59274;BME280;45044;41.572;24.730;2023-04-06T00:05:34;90814.22;;;1.54;100.00
59274;BME280;45044;41.572;24.730;2023-04-06T00:08:01;90775.72;;;1.40;100.00
59274;BME280;45044;41.572;24.730;2023-04-06T00:10:28;90811.09;;;1.48;100.00
59274;BME280;45044;41.572;24.730;2023-04-06T00:12:55;90803.56;;;1.43;100.00
59274;BME280;45044;41.572;24.730;2023-04-06T00:15:24;90788.00;;;1.43;100.00
59274;BME280;45044;41.572;24.730;2023-04-06T00:17:51;90809.97;;;1.21;100.00
59274;BME280;45044;41.572;24.730;2023-04-06T00:20:19;90811.41;;;0.93;100.00
59274;BME280;45044;41.572;24.730;2023-04-06T00:22:46;90808.50;;;0.94;100.00
59274;BME280;45044;41.572;24.730;2023-04-06T00:25:13;90806.31;;;0.97;100.00
59274;BME280;45044;41.572;24.730;2023-04-06T00:27:41;90813.25;;;0.80;100.00
59274;BME280;45044;41.572;24.730;2023-04-06T00:30:08;90806.44;;;0.75;100.00
59274;BME280;45044;41.572;24.730;2023-04-06T00:32:35;90803.75;;;0.71;100.00
59274;BME280;45044;41.572;24.730;2023-04-06T00:35:03;90791.56;;;0.97;100.00
59274;BME280;45044;41.572;24.730;2023-04-06T00:37:30;90793.91;;;1.02;100.00
59274;BME280;45044;41.572;24.730;2023-04-06T00:39:57;90799.41;;;1.13;100.00
59274;BME280;45044;41.572;24.730;2023-04-06T00:42:24;90801.28;;;0.75;100.00
59274;BME280;45044;41.572;24.730;2023-04-06T00:44:56;90793.50;;;0.63;100.00
59274;BME280;45044;41.572;24.730;2023-04-06T00:47:23;90793.72;;;0.57;100.00
59274;BME280;45044;41.572;24.730;2023-04-06T00:49:53;90795.66;;;0.48;100.00
59274;BME280;45044;41.572;24.730;2023-04-06T00:52:20;90790.25;;;0.41;100.00
59274;BME280;45044;41.572;24.730;2023-04-06T00:54:48;90792.63;;;0.58;100.00
59274;BME280;45044;41.572;24.730;2023-04-06T00:57:15;90793.94;;;0.52;100.00
59274;BME280;45044;41.572;24.730;2023-04-06T00:59:42;90792.84;;;0.41;100.00
59274;BME280;45044;41.572;24.730;2023-04-06T01:02:09;90791.34;;;0.40;100.00
59274;BME280;45044;41.572;24.730;2023-04-06T01:04:36;90790.94;;;0.50;100.00
59274;BME280;45044;41.572;24.730;2023-04-06T01:07:03;90781.78;;;0.53;100.00
59274;BME280;45044;41.572;24.730;2023-04-06T01:09:30;90781.97;;;0.60;100.00
59274;BME280;45044;41.572;24.730;2023-04-06T01:11:58;90771.19;;;0.70;100.00
59274;BME280;45044;41.572;24.730;2023-04-06T01:14:25;90782.50;;;0.91;100.00
59274;BME280;45044;41.572;24.730;2023-04-06T01:16:52;90781.97;;;0.98;100.00
59274;BME280;45044;41.572;24.730;2023-04-06T01:19:19;90786.38;;;0.97;100.00
59274;BME280;45044;41.572;24.730;2023-04-06T01:21:47;90772.94;;;1.20;100.00
59274;BME280;45044;41.572;24.730;2023-04-06T01:24:16;90759.47;;;1.27;100.00
59274;BME280;45044;41.572;24.730;2023-04-06T01:26:43;90768.81;;;1.31;100.00
59274;BME280;45044;41.572;24.730;2023-04-06T01:29:09;90758.50;;;1.19;100.00
59274;BME280;45044;41.572;24.730;2023-04-06T01:31:37;90757.59;;;1.27;100.00
59274;BME280;45044;41.572;24.730;2023-04-06T01:34:04;90751.03;;;1.30;100.00
59274;BME280;45044;41.572;24.730;2023-04-06T01:36:31;90753.94;;;1.28;100.00
59274;BME280;45044;41.572;24.730;2023-04-06T01:38:58;90754.94;;;1.11;100.00
59274;BME280;45044;41.572;24.730;2023-04-06T01:41:25;90765.22;;;1.07;100.00
59274;BME280;45044;41.572;24.730;2023-04-06T01:43:52;90751.66;;;0.98;100.00
59274;BME280;45044;41.572;24.730;2023-04-06T01:46:21;90762.69;;;0.70;100.00
59274;BME280;45044;41.572;24.730;2023-04-06T01:48:48;90761.59;;;0.71;100.00
59274;BME280;45044;41.572;24.730;2023-04-06T01:51:15;90759.00;;;0.46;100.00
59274;BME280;45044;41.572;24.730;2023-04-06T01:53:42;90764.19;;;0.58;100.00
59274;BME280;45044;41.572;24.730;2023-04-06T01:56:09;90766.78;;;0.46;100.00
59274;BME280;45044;41.572;24.730;2023-04-06T01:58:36;90764.19;;;0.58;100.00
59274;BME280;45044;41.572;24.730;2023-04-06T02:01:03;90770.22;;;0.50;100.00
59274;BME280;45044;41.572;24.730;2023-04-06T02:03:30;90767.84;;;0.57;100.00
59274;BME280;45044;41.572;24.730;2023-04-06T02:05:57;90728.75;;;0.34;100.00
59274;BME280;45044;41.572;24.730;2023-04-06T02:08:24;90771.00;;;0.51;100.00
59274;BME280;45044;41.572;24.730;2023-04-06T02:10:51;90762.47;;;0.63;100.00
59274;BME280;45044;41.572;24.730;2023-04-06T02:13:18;90765.16;;;0.54;100.00
59274;BME280;45044;41.572;24.730;2023-04-06T02:15:45;90732.50;;;0.24;100.00
59274;BME280;45044;41.572;24.730;2023-04-06T02:18:12;90766.13;;;0.74;100.00
59274;BME280;45044;41.572;24.730;2023-04-06T02:20:38;90760.53;;;0.72;100.00
59274;BME280;45044;41.572;24.730;2023-04-06T02:23:05;90759.41;;;0.86;100.00
59274;BME280;45044;41.572;24.730;2023-04-06T02:25:32;90746.91;;;0.88;100.00
59274;BME280;45044;41.572;24.730;2023-04-06T02:27:58;90752.97;;;0.79;100.00
59274;BME280;45044;41.572;24.730;2023-04-06T02:30:25;90757.50;;;0.70;100.00
59274;BME280;45044;41.572;24.730;2023-04-06T02:32:52;90747.28;;;0.49;100.00
59274;BME280;45044;41.572;24.730;2023-04-06T02:35:19;90741.44;;;0.27;100.00
59274;BME280;45044;41.572;24.730;2023-04-06T02:37:46;90746.72;;;0.30;100.00
59274;BME280;45044;41.572;24.730;2023-04-06T02:40:15;90756.19;;;0.26;100.00
59274;BME280;45044;41.572;24.730;2023-04-06T02:42:42;90752.94;;;0.04;100.00
59274;BME280;45044;41.572;24.730;2023-04-06T02:45:08;90746.81;;;-0.04;100.00
59274;BME280;45044;41.572;24.730;2023-04-06T02:47:35;90752.09;;;0.00;100.00
59274;BME280;45044;41.572;24.730;2023-04-06T02:50:02;90755.06;;;-0.10;100.00
59274;BME280;45044;41.572;24.730;2023-04-06T02:52:29;90745.97;;;0.17;100.00
59274;BME280;45044;41.572;24.730;2023-04-06T02:54:56;90748.34;;;0.60;100.00
59274;BME280;45044;41.572;24.730;2023-04-06T02:57:25;90750.19;;;0.72;100.00
59274;BME280;45044;41.572;24.730;2023-04-06T02:59:52;90744.34;;;0.75;100.00
59274;BME280;45044;41.572;24.730;2023-04-06T03:02:19;90749.06;;;0.86;100.00
59274;BME280;45044;41.572;24.730;2023-04-06T03:04:47;90744.28;;;1.00;100.00
59274;BME280;45044;41.572;24.730;2023-04-06T03:07:13;90734.91;;;1.08;100.00
59274;BME280;45044;41.572;24.730;2023-04-06T03:09:40;90739.75;;;1.10;100.00
59274;BME280;45044;41.572;24.730;2023-04-06T03:12:07;90733.31;;;1.03;100.00
59274;BME280;45044;41.572;24.730;2023-04-06T03:14:35;90733.50;;;1.11;100.00
59274;BME280;45044;41.572;24.730;2023-04-06T03:17:02;90730.16;;;1.10;100.00
59274;BME280;45044;41.572;24.730;2023-04-06T03:19:29;90735.69;;;0.96;100.00
59274;BME280;45044;41.572;24.730;2023-04-06T03:21:56;90733.34;;;0.78;100.00
59274;BME280;45044;41.572;24.730;2023-04-06T03:24:32;90747.81;;;0.67;100.00
59274;BME280;45044;41.572;24.730;2023-04-06T03:26:59;90731.84;;;0.65;100.00
59274;BME280;45044;41.572;24.730;2023-04-06T03:29:26;90737.25;;;0.59;100.00
59274;BME280;45044;41.572;24.730;2023-04-06T03:31:54;90734.22;;;0.70;100.00
59274;BME280;45044;41.572;24.730;2023-04-06T03:34:21;90742.84;;;0.74;100.00
59274;BME280;45044;41.572;24.730;2023-04-06T03:36:48;90740.91;;;0.83;100.00
59274;BME280;45044;41.572;24.730;2023-04-06T03:39:32;90732.31;;;0.42;100.00
59274;BME280;45044;41.572;24.730;2023-04-06T03:41:59;90729.28;;;0.27;100.00
59274;BME280;45044;41.572;24.730;2023-04-06T03:44:25;90731.94;;;0.06;100.00
59274;BME280;45044;41.572;24.730;2023-04-06T03:46:52;90732.72;;;0.19;100.00
59274;BME280;45044;41.572;24.730;2023-04-06T03:49:19;90731.81;;;0.02;100.00
59274;BME280;45044;41.572;24.730;2023-04-06T03:51:46;90736.03;;;-0.06;100.00
59274;BME280;45044;41.572;24.730;2023-04-06T03:54:12;90739.72;;;0.18;100.00
59274;BME280;45044;41.572;24.730;2023-04-06T03:56:39;90736.59;;;0.25;100.00
59274;BME280;45044;41.572;24.730;2023-04-06T03:59:06;90735.63;;;0.30;100.00
59274;BME280;45044;41.572;24.730;2023-04-06T04:01:33;90724.31;;;0.47;100.00
59274;BME280;45044;41.572;24.730;2023-04-06T04:04:00;90730.34;;;0.39;100.00
59274;BME280;45044;41.572;24.730;2023-04-06T04:06:27;90721.75;;;0.34;100.00
59274;BME280;45044;41.572;24.730;2023-04-06T04:08:53;90727.13;;;0.42;100.00
59274;BME280;45044;41.572;24.730;2023-04-06T04:11:20;90728.84;;;0.38;100.00
59274;BME280;45044;41.572;24.730;2023-04-06T04:13:47;90721.81;;;0.26;100.00
59274;BME280;45044;41.572;24.730;2023-04-06T04:16:14;90727.34;;;0.49;100.00
59274;BME280;45044;41.572;24.730;2023-04-06T04:18:40;90722.69;;;0.42;100.00
59274;BME280;45044;41.572;24.730;2023-04-06T04:21:10;90721.09;;;0.38;100.00
59274;BME280;45044;41.572;24.730;2023-04-06T04:23:36;90723.25;;;0.35;100.00
59274;BME280;45044;41.572;24.730;2023-04-06T04:26:03;90727.53;;;0.31;100.00
59274;BME280;45044;41.572;24.730;2023-04-06T04:28:30;90733.59;;;0.35;100.00
59274;BME280;45044;41.572;24.730;2023-04-06T04:30:58;90742.66;;;0.42;100.00
59274;BME280;45044;41.572;24.730;2023-04-06T04:33:24;90737.03;;;0.52;100.00
59274;BME280;45044;41.572;24.730;2023-04-06T04:35:51;90742.88;;;0.49;100.00
59274;BME280;45044;41.572;24.730;2023-04-06T04:38:18;90733.59;;;0.48;100.00
59274;BME280;45044;41.572;24.730;2023-04-06T04:40:45;90736.59;;;0.50;100.00
59274;BME280;45044;41.572;24.730;2023-04-06T04:43:12;90735.94;;;0.66;100.00
59274;BME280;45044;41.572;24.730;2023-04-06T04:45:39;90732.94;;;0.39;100.00
59274;BME280;45044;41.572;24.730;2023-04-06T04:48:06;90744.03;;;0.14;100.00
59274;BME280;45044;41.572;24.730;2023-04-06T04:50:35;90748.22;;;0.31;100.00
59274;BME280;45044;41.572;24.730;2023-04-06T04:53:02;90750.59;;;0.24;100.00
59274;BME280;45044;41.572;24.730;2023-04-06T04:55:32;90748.22;;;0.31;100.00
59274;BME280;45044;41.572;24.730;2023-04-06T04:57:59;90745.53;;;0.15;100.00
59274;BME280;45044;41.572;24.730;2023-04-06T05:00:26;90746.06;;;-0.04;100.00
59274;BME280;45044;41.572;24.730;2023-04-06T05:02:52;90749.31;;;0.05;100.00
59274;BME280;45044;41.572;24.730;2023-04-06T05:05:19;90745.31;;;0.08;100.00
59274;BME280;45044;41.572;24.730;2023-04-06T05:07:46;90751.13;;;0.05;100.00
59274;BME280;45044;41.572;24.730;2023-04-06T05:10:13;90748.00;;;0.24;100.00
59274;BME280;45044;41.572;24.730;2023-04-06T05:12:40;90739.19;;;0.38;100.00
59274;BME280;45044;41.572;24.730;2023-04-06T05:15:07;90750.91;;;0.22;100.00
59274;BME280;45044;41.572;24.730;2023-04-06T05:17:35;90742.44;;;0.34;100.00
59274;BME280;45044;41.572;24.730;2023-04-06T05:20:02;90749.97;;;0.40;100.00
59274;BME280;45044;41.572;24.730;2023-04-06T05:22:28;90740.69;;;0.26;100.00
59274;BME280;45044;41.572;24.730;2023-04-06T05:24:55;90732.50;;;0.37;100.00
59274;BME280;45044;41.572;24.730;2023-04-06T05:27:22;90734.56;;;0.43;100.00
59274;BME280;45044;41.572;24.730;2023-04-06T05:29:49;90737.69;;;0.49;100.00
59274;BME280;45044;41.572;24.730;2023-04-06T05:32:16;90730.25;;;0.35;100.00
59274;BME280;45044;41.572;24.730;2023-04-06T05:34:42;90723.91;;;0.45;100.00
59274;BME280;45044;41.572;24.730;2023-04-06T05:37:09;90727.53;;;0.31;100.00
59274;BME280;45044;41.572;24.730;2023-04-06T05:39:36;90719.13;;;0.22;100.00
59274;BME280;45044;41.572;24.730;2023-04-06T05:42:06;90708.16;;;0.13;100.00
59274;BME280;45044;41.572;24.730;2023-04-06T05:44:33;90723.69;;;0.13;100.00
59274;BME280;45044;41.572;24.730;2023-04-06T05:46:59;90715.59;;;0.27;100.00
59274;BME280;45044;41.572;24.730;2023-04-06T05:49:29;90719.56;;;0.37;100.00
59274;BME280;45044;41.572;24.730;2023-04-06T05:51:56;90717.63;;;0.58;100.00
59274;BME280;45044;41.572;24.730;2023-04-06T05:54:23;90711.81;;;0.49;100.00
59274;BME280;45044;41.572;24.730;2023-04-06T05:56:50;90721.94;;;0.67;100.00
59274;BME280;45044;41.572;24.730;2023-04-06T05:59:17;90717.63;;;0.58;100.00
59274;BME280;45044;41.572;24.730;2023-04-06T06:01:43;90715.25;;;0.53;100.00
59274;BME280;45044;41.572;24.730;2023-04-06T06:04:10;90718.25;;;0.68;100.00
59274;BME280;45044;41.572;24.730;2023-04-06T06:06:37;90709.75;;;0.55;100.00
59274;BME280;45044;41.572;24.730;2023-04-06T06:09:04;90702.53;;;0.61;100.00
59274;BME280;45044;41.572;24.730;2023-04-06T06:11:31;90699.28;;;0.76;100.00
59274;BME280;45044;41.572;24.730;2023-04-06T06:13:59;90704.50;;;1.05;100.00
59274;BME280;45044;41.572;24.730;2023-04-06T06:16:26;90699.69;;;0.91;100.00
59274;BME280;45044;41.572;24.730;2023-04-06T06:18:53;90705.81;;;1.27;100.00
59274;BME280;45044;41.572;24.730;2023-04-06T06:21:21;90711.38;;;1.13;100.00
59274;BME280;45044;41.572;24.730;2023-04-06T06:23:47;90717.03;;;1.31;100.00
59274;BME280;45044;41.572;24.730;2023-04-06T06:26:15;90710.53;;;1.38;100.00
59274;BME280;45044;41.572;24.730;2023-04-06T06:28:44;90717.22;;;1.39;100.00
59274;BME280;45044;41.572;24.730;2023-04-06T06:31:12;90716.75;;;1.49;100.00
59274;BME280;45044;41.572;24.730;2023-04-06T06:33:42;90717.16;;;1.23;100.00
59274;BME280;45044;41.572;24.730;2023-04-06T06:36:09;90726.16;;;1.13;100.00
59274;BME280;45044;41.572;24.730;2023-04-06T06:38:35;90723.88;;;1.11;100.00
59274;BME280;45044;41.572;24.730;2023-04-06T06:41:02;90713.22;;;2.19;100.00
59274;BME280;45044;41.572;24.730;2023-04-06T06:43:29;90735.69;;;3.75;100.00
59274;BME280;45044;41.572;24.730;2023-04-06T06:45:56;90728.84;;;5.14;100.00
59274;BME280;45044;41.572;24.730;2023-04-06T06:48:23;90721.19;;;7.71;100.00
59274;BME280;45044;41.572;24.730;2023-04-06T06:50:50;90728.13;;;8.63;100.00
59274;BME280;45044;41.572;24.730;2023-04-06T06:53:17;90726.22;;;8.82;100.00
59274;BME280;45044;41.572;24.730;2023-04-06T06:55:44;90719.03;;;9.26;100.00
59274;BME280;45044;41.572;24.730;2023-04-06T06:58:11;90725.75;;;11.58;98.71
59274;BME280;45044;41.572;24.730;2023-04-06T07:00:39;90724.22;;;13.47;80.22
59274;BME280;45044;41.572;24.730;2023-04-06T07:03:16;90724.53;;;15.14;65.16
59274;BME280;45044;41.572;24.730;2023-04-06T07:05:46;90723.81;;;13.28;63.80
59274;BME280;45044;41.572;24.730;2023-04-06T07:08:20;90733.53;;;13.56;66.23
59274;BME280;45044;41.572;24.730;2023-04-06T07:10:48;90727.31;;;11.56;83.79
59274;BME280;45044;41.572;24.730;2023-04-06T07:13:15;90732.91;;;11.23;97.85
59274;BME280;45044;41.572;24.730;2023-04-06T07:15:51;90719.91;;;11.05;100.00
59274;BME280;45044;41.572;24.730;2023-04-06T07:18:19;90725.72;;;12.28;77.72
59274;BME280;45044;41.572;24.730;2023-04-06T07:20:46;90724.13;;;11.72;95.64
59274;BME280;45044;41.572;24.730;2023-04-06T07:23:13;90722.41;;;14.92;68.89
59274;BME280;45044;41.572;24.730;2023-04-06T07:25:40;90727.53;;;14.66;64.59
59274;BME280;45044;41.572;24.730;2023-04-06T07:28:12;90720.25;;;12.67;75.02
59274;BME280;45044;41.572;24.730;2023-04-06T07:30:40;90724.19;;;13.92;73.82
59274;BME280;45044;41.572;24.730;2023-04-06T07:33:06;90717.34;;;15.74;58.44
59274;BME280;45044;41.572;24.730;2023-04-06T07:35:33;90717.97;;;12.93;72.53
59274;BME280;45044;41.572;24.730;2023-04-06T07:38:01;90720.31;;;14.33;66.07
59274;BME280;45044;41.572;24.730;2023-04-06T07:40:28;90720.66;;;14.69;65.34
59274;BME280;45044;41.572;24.730;2023-04-06T07:42:55;90713.03;;;13.39;74.94
59274;BME280;45044;41.572;24.730;2023-04-06T07:45:23;90711.31;;;12.85;76.84
59274;BME280;45044;41.572;24.730;2023-04-06T07:47:50;90711.41;;;14.07;66.89
59274;BME280;45044;41.572;24.730;2023-04-06T07:50:17;90678.47;;;13.54;71.36
59274;BME280;45044;41.572;24.730;2023-04-06T07:52:43;90700.34;;;12.38;84.00
59274;BME280;45044;41.572;24.730;2023-04-06T07:55:11;90705.19;;;12.91;82.46
59274;BME280;45044;41.572;24.730;2023-04-06T07:57:37;90700.94;;;11.59;96.49
59274;BME280;45044;41.572;24.730;2023-04-06T08:00:05;90693.38;;;12.76;85.45
59274;BME280;45044;41.572;24.730;2023-04-06T08:02:32;90687.63;;;13.70;74.76
59274;BME280;45044;41.572;24.730;2023-04-06T08:04:59;90691.63;;;12.41;80.77
59274;BME280;45044;41.572;24.730;2023-04-06T08:07:39;90658.69;;;13.83;58.69
59274;BME280;45044;41.572;24.730;2023-04-06T08:10:06;90681.63;;;13.86;51.50
59274;BME280;45044;41.572;24.730;2023-04-06T08:12:33;90673.53;;;12.43;54.03
59274;BME280;45044;41.572;24.730;2023-04-06T08:15:00;90679.31;;;12.03;56.86
59274;BME280;45044;41.572;24.730;2023-04-06T08:17:29;90662.47;;;14.52;49.47
59274;BME280;45044;41.572;24.730;2023-04-06T08:19:57;90671.06;;;14.73;50.39
59274;BME280;45044;41.572;24.730;2023-04-06T08:22:24;90668.56;;;13.17;55.80
59274;BME280;45044;41.572;24.730;2023-04-06T08:24:51;90665.22;;;11.90;64.84
59274;BME280;45044;41.572;24.730;2023-04-06T08:27:18;90671.03;;;10.69;60.05
59274;BME280;45044;41.572;24.730;2023-04-06T08:29:44;90672.03;;;10.29;66.10
59274;BME280;45044;41.572;24.730;2023-04-06T08:32:12;90669.63;;;11.37;71.93
59274;BME280;45044;41.572;24.730;2023-04-06T08:34:39;90671.09;;;10.61;58.18
59274;BME280;45044;41.572;24.730;2023-04-06T08:37:06;90663.94;;;9.37;59.55
59274;BME280;45044;41.572;24.730;2023-04-06T08:39:33;90664.94;;;9.58;68.22
59274;BME280;45044;41.572;24.730;2023-04-06T08:42:01;90664.25;;;9.50;79.01
59274;BME280;45044;41.572;24.730;2023-04-06T08:44:31;90666.72;;;8.68;81.65
59274;BME280;45044;41.572;24.730;2023-04-06T08:46:59;90661.84;;;8.51;100.00
59274;BME280;45044;41.572;24.730;2023-04-06T08:49:27;90659.94;;;8.92;85.98
59274;BME280;45044;41.572;24.730;2023-04-06T08:51:55;90656.63;;;8.59;79.49
59274;BME280;45044;41.572;24.730;2023-04-06T08:54:23;90651.75;;;8.13;97.82
59274;BME280;45044;41.572;24.730;2023-04-06T08:56:52;90648.72;;;7.89;100.00
59274;BME280;45044;41.572;24.730;2023-04-06T08:59:20;90648.72;;;7.89;97.96
59274;BME280;45044;41.572;24.730;2023-04-06T09:01:46;90656.09;;;9.22;84.17
59274;BME280;45044;41.572;24.730;2023-04-06T09:04:14;90648.81;;;10.24;76.74
59274;BME280;45044;41.572;24.730;2023-04-06T09:06:43;90648.09;;;10.69;73.73
59274;BME280;45044;41.572;24.730;2023-04-06T09:09:09;90639.88;;;10.63;66.56
59274;BME280;45044;41.572;24.730;2023-04-06T09:11:44;90651.34;;;10.84;70.35
59274;BME280;45044;41.572;24.730;2023-04-06T09:14:11;90642.78;;;10.27;92.74
59274;BME280;45044;41.572;24.730;2023-04-06T09:16:42;90639.81;;;10.25;98.22
59274;BME280;45044;41.572;24.730;2023-04-06T09:19:10;90642.00;;;9.77;88.18
59274;BME280;45044;41.572;24.730;2023-04-06T09:21:38;90644.00;;;10.15;94.72
59274;BME280;45044;41.572;24.730;2023-04-06T09:24:07;90641.31;;;10.22;100.00
59274;BME280;45044;41.572;24.730;2023-04-06T09:26:45;90630.78;;;10.75;82.08
59274;BME280;45044;41.572;24.730;2023-04-06T09:29:25;90628.34;;;10.96;79.62
59274;BME280;45044;41.572;24.730;2023-04-06T09:32:02;90632.53;;;10.89;84.06
59274;BME280;45044;41.572;24.730;2023-04-06T09:34:29;90620.75;;;10.63;81.22
59274;BME280;45044;41.572;24.730;2023-04-06T09:36:56;90619.16;;;9.70;89.42
59274;BME280;45044;41.572;24.730;2023-04-06T09:39:24;90618.91;;;9.46;99.38
59274;BME280;45044;41.572;24.730;2023-04-06T09:41:53;90628.53;;;8.78;100.00
59274;BME280;45044;41.572;24.730;2023-04-06T09:44:20;90629.63;;;8.77;100.00
59274;BME280;45044;41.572;24.730;2023-04-06T09:46:50;90630.03;;;7.98;100.00
59274;BME280;45044;41.572;24.730;2023-04-06T09:49:30;90633.03;;;7.86;100.00
59274;BME280;45044;41.572;24.730;2023-04-06T09:52:06;90637.84;;;7.73;100.00
59274;BME280;45044;41.572;24.730;2023-04-06T09:54:34;90635.16;;;7.40;100.00
59274;BME280;45044;41.572;24.730;2023-04-06T10:03:20;90638.66;;;6.80;100.00
59274;BME280;45044;41.572;24.730;2023-04-06T10:06:01;90643.28;;;6.42;100.00
59274;BME280;45044;41.572;24.730;2023-04-06T10:08:33;90638.53;;;6.55;100.00
59274;BME280;45044;41.572;24.730;2023-04-06T10:11:01;90627.84;;;6.22;100.00
59274;BME280;45044;41.572;24.730;2023-04-06T10:13:28;90642.09;;;6.32;100.00
59274;BME280;45044;41.572;24.730;2023-04-06T10:15:55;90645.09;;;5.89;100.00
59274;BME280;45044;41.572;24.730;2023-04-06T10:18:24;90643.63;;;5.49;100.00
59274;BME280;45044;41.572;24.730;2023-04-06T10:20:55;90618.03;;;5.24;100.00
59274;BME280;45044;41.572;24.730;2023-04-06T10:23:29;90641.38;;;5.48;100.00
59274;BME280;45044;41.572;24.730;2023-04-06T10:25:59;90635.44;;;5.51;100.00
59274;BME280;45044;41.572;24.730;2023-04-06T10:28:34;90638.31;;;5.42;100.00
59274;BME280;45044;41.572;24.730;2023-04-06T10:31:06;90638.44;;;5.19;100.00
59274;BME280;45044;41.572;24.730;2023-04-06T10:33:33;90636.72;;;5.30;100.00
59274;BME280;45044;41.572;24.730;2023-04-06T10:36:14;90639.72;;;5.32;100.00
59274;BME280;45044;41.572;24.730;2023-04-06T10:38:42;90647.69;;;5.47;100.00
59274;BME280;45044;41.572;24.730;2023-04-06T10:41:11;90645.22;;;5.61;100.00
59274;BME280;45044;41.572;24.730;2023-04-06T10:43:40;90645.50;;;5.53;100.00
59274;BME280;45044;41.572;24.730;2023-04-06T10:46:08;90646.91;;;5.43;100.00
59274;BME280;45044;41.572;24.730;2023-04-06T10:48:44;90646.59;;;5.48;100.00
59274;BME280;45044;41.572;24.730;2023-04-06T10:51:16;90649.41;;;5.32;100.00
59274;BME280;45044;41.572;24.730;2023-04-06T10:53:45;90644.22;;;5.35;100.00
59274;BME280;45044;41.572;24.730;2023-04-06T10:56:17;90651.72;;;5.41;100.00
59274;BME280;45044;41.572;24.730;2023-04-06T10:58:49;90641.41;;;5.51;100.00
59274;BME280;45044;41.572;24.730;2023-04-06T11:01:18;90636.81;;;5.37;100.00
59274;BME280;45044;41.572;24.730;2023-04-06T11:03:46;90642.16;;;5.52;100.00
59274;BME280;45044;41.572;24.730;2023-04-06T11:06:24;90642.94;;;5.56;100.00
59274;BME280;45044;41.572;24.730;2023-04-06T11:08:53;90642.31;;;5.67;100.00
59274;BME280;45044;41.572;24.730;2023-04-06T11:11:22;90643.53;;;5.80;100.00
59274;BME280;45044;41.572;24.730;2023-04-06T11:13:51;90647.31;;;5.45;100.00
59274;BME280;45044;41.572;24.730;2023-04-06T11:16:21;90641.00;;;5.49;100.00
59274;BME280;45044;41.572;24.730;2023-04-06T11:18:54;90645.09;;;5.47;100.00
59274;BME280;45044;41.572;24.730;2023-04-06T11:21:39;90636.81;;;5.37;100.00
59274;BME280;45044;41.572;24.730;2023-04-06T11:26:49;90648.06;;;5.49;100.00
59274;BME280;45044;41.572;24.730;2023-04-06T11:29:21;90649.66;;;5.57;100.00
59274;BME280;45044;41.572;24.730;2023-04-06T11:34:21;90646.25;;;5.95;100.00
59274;BME280;45044;41.572;24.730;2023-04-06T11:36:54;90634.34;;;5.94;100.00
59274;BME280;45044;41.572;24.730;2023-04-06T11:39:25;90641.19;;;6.09;100.00
59274;BME280;45044;41.572;24.730;2023-04-06T11:42:00;90642.03;;;6.21;100.00
59274;BME280;45044;41.572;24.730;2023-04-06T11:47:10;90638.69;;;5.82;100.00
59274;BME280;45044;41.572;24.730;2023-04-06T11:49:40;90632.88;;;6.00;100.00
59274;BME280;45044;41.572;24.730;2023-04-06T11:52:34;90628.34;;;5.90;100.00
59274;BME280;45044;41.572;24.730;2023-04-06T11:57:41;90637.88;;;5.36;100.00
59274;BME280;45044;41.572;24.730;2023-04-06T12:00:12;90635.97;;;5.68;100.00
59274;BME280;45044;41.572;24.730;2023-04-06T12:02:39;90634.22;;;5.41;100.00
59274;BME280;45044;41.572;24.730;2023-04-06T12:05:07;90637.69;;;5.53;100.00
59274;BME280;45044;41.572;24.730;2023-04-06T12:07:36;90626.59;;;5.59;100.00
59274;BME280;45044;41.572;24.730;2023-04-06T12:10:03;90638.16;;;5.62;100.00
59274;BME280;45044;41.572;24.730;2023-04-06T12:12:30;90641.69;;;5.08;100.00
59274;BME280;45044;41.572;24.730;2023-04-06T12:14:57;90639.50;;;5.10;100.00
59274;BME280;45044;41.572;24.730;2023-04-06T12:17:25;90626.41;;;5.07;100.00
59274;BME280;45044;41.572;24.730;2023-04-06T12:19:54;90638.78;;;5.13;100.00
59274;BME280;45044;41.572;24.730;2023-04-06T12:22:30;90647.13;;;4.96;100.00
59274;BME280;45044;41.572;24.730;2023-04-06T12:24:57;90632.16;;;5.20;100.00
59274;BME280;45044;41.572;24.730;2023-04-06T12:27:23;90622.56;;;5.31;100.00
59274;BME280;45044;41.572;24.730;2023-04-06T12:29:50;90619.56;;;5.29;100.00
59274;BME280;45044;41.572;24.730;2023-04-06T12:32:17;90620.31;;;5.30;100.00
59274;BME280;45044;41.572;24.730;2023-04-06T12:34:44;90616.66;;;5.34;100.00
59274;BME280;45044;41.572;24.730;2023-04-06T12:37:11;90621.13;;;5.34;100.00
59274;BME280;45044;41.572;24.730;2023-04-06T12:39:38;90616.66;;;5.34;100.00
59274;BME280;45044;41.572;24.730;2023-04-06T12:42:05;90621.13;;;5.34;100.00
59274;BME280;45044;41.572;24.730;2023-04-06T12:44:31;90621.88;;;5.34;100.00
59274;BME280;45044;41.572;24.730;2023-04-06T12:46:58;90625.66;;;5.41;100.00
59274;BME280;45044;41.572;24.730;2023-04-06T12:49:25;90623.00;;;5.37;100.00
59274;BME280;45044;41.572;24.730;2023-04-06T12:51:52;90603.31;;;5.39;100.00
59274;BME280;45044;41.572;24.730;2023-04-06T12:54:19;90621.44;;;5.67;100.00
59274;BME280;45044;41.572;24.730;2023-04-06T12:56:46;90616.22;;;5.29;100.00
59274;BME280;45044;41.572;24.730;2023-04-06T12:59:13;90616.06;;;5.48;100.00
59274;BME280;45044;41.572;24.730;2023-04-06T13:01:40;90613.97;;;4.93;100.00
59274;BME280;45044;41.572;24.730;2023-04-06T13:04:07;90613.84;;;5.12;100.00
59274;BME280;45044;41.572;24.730;2023-04-06T13:06:34;90597.75;;;5.07;100.00
59274;BME280;45044;41.572;24.730;2023-04-06T13:09:01;90606.25;;;5.34;100.00
59274;BME280;45044;41.572;24.730;2023-04-06T13:11:29;90606.91;;;5.27;100.00